createdAt,value
2022-12-23T00:01:40.908Z,5.17
2022-12-23T00:04:11.443Z,5.75
2022-12-23T00:06:41.887Z,5.90
2022-12-23T00:09:12.207Z,5.33
2022-12-23T00:11:44.069Z,5.12
2022-12-23T00:14:21.915Z,6.08
2022-12-23T00:16:51.684Z,5.30
2022-12-23T00:19:22.129Z,5.72
2022-12-23T00:21:52.400Z,5.75
2022-12-23T00:24:22.669Z,5.92
2022-12-23T00:26:52.963Z,5.42
2022-12-23T00:29:23.340Z,5.97
2022-12-23T00:31:53.618Z,5.53
2022-12-23T00:34:24.054Z,5.28
2022-12-23T00:36:54.666Z,6.33
2022-12-23T00:39:42.579Z,6.25
2022-12-23T00:42:23.285Z,5.80
2022-12-23T00:44:53.649Z,6.00
2022-12-23T00:47:41.888Z,6.17
2022-12-23T00:50:12.860Z,5.80
2022-12-23T00:52:43.045Z,5.80
2022-12-23T00:55:13.365Z,6.10
2022-12-23T00:57:43.666Z,6.85
2022-12-23T01:00:15.039Z,6.30
2022-12-23T01:03:03.675Z,6.08
2022-12-23T01:05:37.293Z,6.40
2022-12-23T01:08:10.422Z,6.92
2022-12-23T01:10:42.089Z,6.58
2022-12-23T01:13:12.300Z,6.90
2022-12-23T01:15:42.620Z,7.00
2022-12-23T01:18:12.914Z,7.05
2022-12-23T01:20:43.231Z,6.28
2022-12-23T01:23:13.531Z,6.55
2022-12-23T01:25:43.896Z,6.87
2022-12-23T01:28:14.102Z,6.87
2022-12-23T01:30:46.026Z,6.75
2022-12-23T01:33:16.262Z,6.20
2022-12-23T01:35:46.565Z,7.20
2022-12-23T01:38:16.844Z,6.72
2022-12-23T01:40:47.309Z,7.17
2022-12-23T01:43:19.658Z,6.58
2022-12-23T01:45:50.387Z,6.72
2022-12-23T01:48:28.686Z,7.03
2022-12-23T01:51:04.886Z,6.85
2022-12-23T01:53:47.127Z,7.62
2022-12-23T01:56:20.383Z,6.72
2022-12-23T01:58:53.537Z,7.20
2022-12-23T02:01:28.658Z,6.90
2022-12-23T02:04:02.271Z,6.97
2022-12-23T02:06:56.118Z,7.12
2022-12-23T02:09:34.661Z,6.65
2022-12-23T02:12:17.149Z,7.20
2022-12-23T02:15:37.072Z,6.92
2022-12-23T02:18:22.842Z,6.92
2022-12-23T02:21:16.068Z,6.93
2022-12-23T02:23:49.252Z,7.05
2022-12-23T02:26:41.813Z,6.17
2022-12-23T02:29:20.822Z,6.95
2022-12-23T02:32:03.335Z,6.12
2022-12-23T02:34:57.422Z,7.10
2022-12-23T02:40:46.177Z,7.58
2022-12-23T02:43:28.361Z,7.10
2022-12-23T02:46:10.380Z,7.12
2022-12-23T02:49:08.308Z,7.42
2022-12-23T02:51:44.271Z,8.00
2022-12-23T02:54:17.527Z,7.42
2022-12-23T02:56:51.210Z,7.95
2022-12-23T02:59:27.228Z,7.17
2022-12-23T03:02:00.358Z,7.45
2022-12-23T03:04:30.677Z,7.00
2022-12-23T03:07:07.213Z,7.37
2022-12-23T03:09:38.794Z,7.37
2022-12-23T03:12:11.989Z,7.25
2022-12-23T03:15:14.167Z,6.90
2022-12-23T03:17:53.235Z,7.15
2022-12-23T03:20:29.401Z,6.40
2022-12-23T03:23:05.251Z,6.87
2022-12-23T03:25:41.124Z,6.47
2022-12-23T03:28:29.408Z,6.50
2022-12-23T03:31:02.588Z,6.62
2022-12-23T03:33:38.899Z,6.65
2022-12-23T03:36:12.127Z,5.95
2022-12-23T03:38:45.100Z,6.58
2022-12-23T03:41:18.233Z,6.33
2022-12-23T03:43:51.489Z,6.03
2022-12-23T03:46:27.269Z,5.83
2022-12-23T03:49:03.075Z,6.80
2022-12-23T03:51:36.237Z,6.08
2022-12-23T03:54:09.503Z,5.45
2022-12-23T03:56:48.813Z,6.47
2022-12-23T03:59:24.630Z,5.97
2022-12-23T04:02:09.901Z,6.22
2022-12-23T04:05:13.759Z,7.00
2022-12-23T04:07:56.093Z,6.42
2022-12-23T04:10:27.047Z,6.40
2022-12-23T04:12:57.346Z,5.65
2022-12-23T04:15:28.903Z,6.20
2022-12-23T04:17:59.675Z,6.40
2022-12-23T04:20:29.974Z,6.17
2022-12-23T04:23:00.489Z,5.58
2022-12-23T04:25:30.861Z,6.67
2022-12-23T04:28:01.061Z,6.37
2022-12-23T04:30:34.435Z,6.28
2022-12-23T04:33:03.848Z,5.87
2022-12-23T04:35:34.231Z,5.72
2022-12-23T04:38:04.681Z,5.53
2022-12-23T04:40:35.270Z,5.62
2022-12-23T04:43:05.571Z,5.45
2022-12-23T04:45:35.997Z,5.83
2022-12-23T04:48:06.618Z,5.17
2022-12-23T04:50:37.347Z,5.65
2022-12-23T04:53:07.782Z,5.62
2022-12-23T04:55:38.079Z,5.47
2022-12-23T04:58:08.320Z,6.70
2022-12-23T05:00:39.990Z,5.50
2022-12-23T05:03:10.715Z,5.37
2022-12-23T05:05:47.341Z,5.97
2022-12-23T05:10:47.383Z,5.37
2022-12-23T05:13:17.653Z,4.83
2022-12-23T05:15:50.248Z,5.50
2022-12-23T05:18:21.892Z,4.97
2022-12-23T05:20:52.108Z,5.30
2022-12-23T05:23:22.314Z,5.85
2022-12-23T05:25:56.154Z,5.45
2022-12-23T05:28:26.554Z,5.83
2022-12-23T05:31:05.092Z,4.92
2022-12-23T05:33:36.432Z,5.08
2022-12-23T05:36:07.521Z,4.55
2022-12-23T05:38:38.001Z,4.72
2022-12-23T05:41:08.767Z,5.90
2022-12-23T05:43:39.006Z,5.58
2022-12-23T05:46:09.394Z,5.22
2022-12-23T05:48:39.702Z,5.50
2022-12-23T05:51:09.946Z,5.15
2022-12-23T05:53:40.141Z,4.80
2022-12-23T05:56:10.541Z,5.03
2022-12-23T05:58:40.801Z,5.33
2022-12-23T06:01:11.421Z,5.67
2022-12-23T06:03:41.827Z,5.00
2022-12-23T06:06:12.157Z,5.20
2022-12-23T06:08:42.417Z,5.80
2022-12-23T06:11:13.296Z,5.05
2022-12-23T06:13:43.633Z,4.97
2022-12-23T06:16:13.939Z,4.87
2022-12-23T06:18:44.226Z,5.45
2022-12-23T06:21:14.603Z,4.95
2022-12-23T06:23:44.870Z,5.58
2022-12-23T06:26:15.360Z,5.22
2022-12-23T06:28:45.732Z,5.75
2022-12-23T06:31:16.143Z,5.80
2022-12-23T06:33:46.599Z,5.12
2022-12-23T06:36:16.986Z,5.67
2022-12-23T06:38:47.454Z,4.95
2022-12-23T06:41:18.125Z,5.05
2022-12-23T06:43:53.962Z,5.22
2022-12-23T06:46:20.467Z,5.78
2022-12-23T06:48:50.904Z,5.80
2022-12-23T06:51:21.628Z,5.83
2022-12-23T06:53:52.258Z,5.35
2022-12-23T06:56:22.451Z,5.47
2022-12-23T06:58:52.818Z,6.00
2022-12-23T07:01:23.391Z,5.85
2022-12-23T07:03:53.770Z,6.30
2022-12-23T07:06:24.124Z,6.03
2022-12-23T07:08:54.634Z,5.90
2022-12-23T07:11:24.979Z,5.80
2022-12-23T07:13:55.285Z,5.92
2022-12-23T07:16:25.584Z,5.37
2022-12-23T07:18:55.835Z,6.30
2022-12-23T07:21:29.507Z,5.20
2022-12-23T07:23:58.191Z,5.58
2022-12-23T07:26:28.426Z,5.75
2022-12-23T07:28:58.783Z,5.75
2022-12-23T07:31:29.103Z,5.62
2022-12-23T07:33:59.631Z,5.75
2022-12-23T07:36:29.816Z,5.70
2022-12-23T07:39:00.112Z,5.53
2022-12-23T07:41:30.533Z,5.47
2022-12-23T07:44:00.834Z,5.90
2022-12-23T07:46:31.306Z,5.45
2022-12-23T07:49:01.809Z,5.70
2022-12-23T07:51:32.682Z,5.53
2022-12-23T07:54:02.949Z,5.30
2022-12-23T07:56:33.251Z,5.53
2022-12-23T07:59:03.515Z,5.05
2022-12-23T08:01:34.016Z,5.50
2022-12-23T08:04:04.338Z,4.55
2022-12-23T08:06:36.731Z,4.97
2022-12-23T08:09:08.619Z,4.97
2022-12-23T08:11:39.101Z,4.83
2022-12-23T08:14:09.440Z,5.08
2022-12-23T08:16:43.909Z,4.42
2022-12-23T08:19:11.835Z,4.65
2022-12-23T08:21:42.337Z,5.33
2022-12-23T08:24:12.641Z,4.62
2022-12-23T08:26:42.999Z,4.67
2022-12-23T08:29:13.264Z,5.95
2022-12-23T08:31:43.534Z,5.03
2022-12-23T08:34:17.348Z,5.47
2022-12-23T08:36:47.647Z,4.67
2022-12-23T08:39:18.423Z,5.55
2022-12-23T08:41:49.833Z,5.33
2022-12-23T08:44:20.406Z,5.72
2022-12-23T08:46:50.869Z,5.65
2022-12-23T08:49:21.566Z,4.67
2022-12-23T08:51:52.317Z,5.10
2022-12-23T08:54:23.888Z,5.55
2022-12-23T08:56:54.189Z,5.45
2022-12-23T08:59:24.427Z,5.33
2022-12-23T09:01:54.908Z,5.40
2022-12-23T09:04:25.393Z,5.60
2022-12-23T09:06:55.673Z,5.30
2022-12-23T09:09:26.049Z,5.17
2022-12-23T09:11:56.331Z,4.95
2022-12-23T09:14:26.583Z,5.17
2022-12-23T09:16:57.043Z,4.85
2022-12-23T09:19:27.315Z,4.70
2022-12-23T09:21:57.846Z,5.33
2022-12-23T09:24:28.092Z,4.97
2022-12-23T09:26:58.349Z,5.15
2022-12-23T09:29:28.619Z,5.30
2022-12-23T09:31:58.970Z,5.03
2022-12-23T09:34:29.468Z,4.90
2022-12-23T09:36:59.869Z,6.00
2022-12-23T09:39:30.148Z,5.70
2022-12-23T09:42:21.466Z,5.53
2022-12-23T09:45:15.845Z,5.28
2022-12-23T09:47:46.883Z,5.10
2022-12-23T09:50:31.050Z,5.53
2022-12-23T09:53:10.050Z,5.42
2022-12-23T09:55:49.358Z,5.97
2022-12-23T09:58:31.891Z,5.47
2022-12-23T10:01:13.773Z,5.17
2022-12-23T10:03:58.939Z,5.30
2022-12-23T10:06:31.539Z,5.33
2022-12-23T10:09:08.107Z,5.58
2022-12-23T10:14:23.810Z,5.22
2022-12-23T10:16:57.003Z,5.90
2022-12-23T10:19:33.028Z,5.67
2022-12-23T10:22:09.409Z,4.85
2022-12-23T10:24:50.291Z,5.78
2022-12-23T10:27:32.487Z,4.90
2022-12-23T10:30:42.501Z,5.17
2022-12-23T10:33:01.843Z,5.42
2022-12-23T10:35:56.416Z,5.00
2022-12-23T10:38:50.266Z,5.42
2022-12-23T10:41:28.922Z,5.85
2022-12-23T10:44:05.155Z,4.70
2022-12-23T10:46:56.451Z,5.08
2022-12-23T10:49:29.783Z,4.67
2022-12-23T10:52:06.069Z,5.55
2022-12-23T10:54:38.480Z,5.97
2022-12-23T10:57:09.490Z,5.35
2022-12-23T10:59:39.820Z,5.25
2022-12-23T11:02:34.381Z,5.05
2022-12-23T11:05:04.996Z,5.22
2022-12-23T11:07:45.197Z,5.65
2022-12-23T11:10:11.042Z,5.37
2022-12-23T11:12:49.904Z,5.28
2022-12-23T11:15:41.396Z,5.20
2022-12-23T11:18:17.636Z,5.37
2022-12-23T11:21:06.130Z,5.00
2022-12-23T11:23:37.527Z,5.37
2022-12-23T11:26:11.188Z,5.12
2022-12-23T11:28:44.385Z,5.78
2022-12-23T11:31:17.063Z,5.30
2022-12-23T11:34:02.854Z,4.90
2022-12-23T11:36:35.265Z,5.97
2022-12-23T11:39:16.755Z,6.37
2022-12-23T11:41:49.110Z,6.35
2022-12-23T11:44:36.828Z,5.80
2022-12-23T11:47:31.286Z,5.47
2022-12-23T11:50:03.767Z,5.45
2022-12-23T11:52:35.327Z,5.87
2022-12-23T11:55:08.205Z,6.08
2022-12-23T11:57:43.980Z,6.00
2022-12-23T12:00:22.998Z,6.10
2022-12-23T12:02:56.491Z,5.92
2022-12-23T12:05:35.599Z,5.12
2022-12-23T12:08:14.745Z,5.50
2022-12-23T12:10:45.331Z,5.17
2022-12-23T12:13:21.623Z,5.83
2022-12-23T12:16:14.928Z,5.70
2022-12-23T12:18:53.702Z,5.85
2022-12-23T12:21:22.430Z,6.00
2022-12-23T12:24:17.656Z,5.58
2022-12-23T12:26:38.270Z,6.08
2022-12-23T12:29:30.855Z,6.95
2022-12-23T12:32:02.567Z,6.00
2022-12-23T12:34:41.488Z,6.47
2022-12-23T12:37:32.871Z,6.35
2022-12-23T12:40:06.000Z,6.22
2022-12-23T12:42:45.168Z,6.17
2022-12-23T12:45:18.392Z,6.10
2022-12-23T12:48:26.771Z,6.03
2022-12-23T12:51:19.379Z,5.78
2022-12-23T12:54:04.692Z,6.20
2022-12-23T12:56:49.015Z,6.65
2022-12-23T12:59:22.524Z,6.05
2022-12-23T13:02:10.813Z,6.28
2022-12-23T13:05:07.946Z,6.10
2022-12-23T13:07:53.258Z,6.15
2022-12-23T13:10:44.594Z,6.73
2022-12-23T13:13:45.084Z,6.72
2022-12-23T13:16:35.845Z,6.50
2022-12-23T13:19:09.066Z,6.15
2022-12-23T13:21:54.097Z,6.50
2022-12-23T13:24:46.897Z,5.95
2022-12-23T13:27:22.798Z,6.65
2022-12-23T13:30:15.238Z,6.20
2022-12-23T13:33:05.423Z,5.92
2022-12-23T13:35:41.514Z,6.37
2022-12-23T13:38:26.755Z,7.50
2022-12-23T13:41:25.720Z,9.38
2022-12-23T13:44:01.724Z,8.95
2022-12-23T13:46:46.728Z,7.90
2022-12-23T13:49:36.657Z,7.40
2022-12-23T13:52:12.907Z,7.00
2022-12-23T13:55:03.292Z,6.67
2022-12-23T13:57:45.149Z,6.53
2022-12-23T14:00:21.097Z,6.30
2022-12-23T14:03:03.052Z,6.70
2022-12-23T14:05:37.313Z,6.72
2022-12-23T14:08:22.242Z,6.92
2022-12-23T14:11:07.315Z,6.20
2022-12-23T14:13:52.247Z,7.03
2022-12-23T14:16:48.467Z,5.70
2022-12-23T14:19:21.673Z,6.58
2022-12-23T14:22:30.937Z,6.62
2022-12-23T14:25:37.595Z,6.40
2022-12-23T14:28:10.759Z,6.22
2022-12-23T14:30:46.205Z,6.15
2022-12-23T14:33:28.380Z,6.45
2022-12-23T14:36:17.886Z,6.78
2022-12-23T14:39:07.836Z,6.70
2022-12-23T14:41:40.509Z,6.42
2022-12-23T14:44:20.701Z,5.97
2022-12-23T14:46:53.787Z,6.35
2022-12-23T14:49:39.015Z,6.72
2022-12-23T14:52:02.190Z,6.75
2022-12-23T14:54:50.172Z,7.22
2022-12-23T14:57:17.781Z,6.10
2022-12-23T14:59:51.435Z,7.03
2022-12-23T15:02:27.887Z,5.90
2022-12-23T15:05:00.079Z,6.90
2022-12-23T15:07:39.357Z,6.03
2022-12-23T15:10:18.787Z,6.20
2022-12-23T15:12:54.370Z,6.72
2022-12-23T15:15:27.009Z,6.47
2022-12-23T15:18:09.075Z,5.92
2022-12-23T15:20:41.138Z,5.60
2022-12-23T15:23:14.483Z,6.15
2022-12-23T15:25:50.278Z,5.50
2022-12-23T15:28:23.662Z,5.33
2022-12-23T15:30:57.308Z,5.45
2022-12-23T15:36:07.223Z,5.05
2022-12-23T15:38:39.825Z,5.95
2022-12-23T15:41:19.830Z,5.80
2022-12-23T15:43:50.595Z,5.62
2022-12-23T15:46:30.161Z,5.72
2022-12-23T15:52:05.900Z,5.30
2022-12-23T15:54:11.135Z,5.40
2022-12-23T15:56:43.950Z,5.25
2022-12-23T15:59:17.122Z,4.95
2022-12-23T16:01:47.460Z,4.92
2022-12-23T16:04:29.722Z,5.10
2022-12-23T16:07:00.788Z,5.00
2022-12-23T16:09:36.789Z,4.87
2022-12-23T16:12:25.385Z,4.85
2022-12-23T16:15:00.156Z,4.45
2022-12-23T16:17:33.173Z,6.05
2022-12-23T16:20:18.627Z,4.22
2022-12-23T16:22:51.188Z,20.97
2022-12-23T16:25:27.658Z,11.75
2022-12-23T16:30:42.769Z,7.33
2022-12-23T16:33:25.080Z,5.35
2022-12-23T16:35:56.607Z,4.90
2022-12-23T16:38:27.936Z,5.28
2022-12-23T16:40:58.883Z,4.30
2022-12-23T16:43:29.222Z,4.47
2022-12-23T16:45:59.803Z,4.78
2022-12-23T16:48:35.980Z,3.35
2022-12-23T16:51:19.350Z,4.37
2022-12-23T16:53:51.885Z,4.35
2022-12-23T16:56:24.072Z,3.83
2022-12-23T16:58:54.364Z,3.67
2022-12-23T17:01:27.668Z,4.08
2022-12-23T17:03:58.467Z,3.27
2022-12-23T17:06:29.130Z,4.37
2022-12-23T17:08:59.425Z,3.50
2022-12-23T17:11:50.573Z,3.58
2022-12-23T17:14:26.481Z,3.50
2022-12-23T17:16:58.053Z,3.40
2022-12-23T17:19:29.462Z,3.25
2022-12-23T17:22:02.670Z,3.00
2022-12-23T17:24:32.917Z,3.20
2022-12-23T17:27:03.177Z,2.42
2022-12-23T17:29:33.500Z,3.77
2022-12-23T17:32:03.833Z,3.30
2022-12-23T17:34:34.112Z,3.62
2022-12-23T17:37:05.985Z,3.42
2022-12-23T17:39:36.361Z,3.30
2022-12-23T17:42:07.060Z,2.87
2022-12-23T17:44:37.262Z,2.70
2022-12-23T17:47:13.190Z,2.65
2022-12-23T17:49:44.228Z,2.47
2022-12-23T17:52:16.867Z,3.20
2022-12-23T17:54:48.497Z,3.10
2022-12-23T17:57:24.753Z,2.70
2022-12-23T17:59:56.957Z,2.70
2022-12-23T18:02:33.210Z,2.80
2022-12-23T18:05:05.639Z,2.58
2022-12-23T18:07:35.964Z,2.67
2022-12-23T18:10:06.530Z,2.85
2022-12-23T18:12:39.216Z,2.27
2022-12-23T18:15:12.524Z,2.60
2022-12-23T18:17:42.778Z,3.02
2022-12-23T18:20:21.763Z,2.20
2022-12-23T18:22:54.525Z,2.08
2022-12-23T18:25:26.824Z,2.58
2022-12-23T18:27:57.124Z,1.82
2022-12-23T18:30:27.468Z,2.22
2022-12-23T18:32:57.734Z,2.30
2022-12-23T18:35:33.853Z,2.42
2022-12-23T18:38:04.164Z,2.30
2022-12-23T18:40:34.402Z,2.20
2022-12-23T18:43:04.815Z,2.12
2022-12-23T18:45:41.814Z,2.15
2022-12-23T18:48:12.464Z,2.00
2022-12-23T18:50:43.767Z,2.20
2022-12-23T18:53:25.540Z,2.17
2022-12-23T18:55:56.743Z,2.83
2022-12-23T18:58:27.120Z,2.55
2022-12-23T19:00:57.539Z,1.85
2022-12-23T19:03:30.618Z,2.00
2022-12-23T19:06:05.536Z,2.12
2022-12-23T19:08:37.217Z,2.30
2022-12-23T19:11:16.102Z,2.20
2022-12-23T19:13:47.108Z,2.37
2022-12-23T19:16:20.462Z,2.25
2022-12-23T19:18:51.739Z,2.15
2022-12-23T19:21:23.028Z,2.75
2022-12-23T19:23:53.316Z,2.80
